createdAt,value
2022-07-27T00:00:06.679Z,88.00
2022-07-27T00:02:35.127Z,88.10
2022-07-27T00:05:02.723Z,88.40
2022-07-27T00:07:33.570Z,88.60
2022-07-27T00:10:01.530Z,88.20
2022-07-27T00:12:29.543Z,88.10
2022-07-27T00:15:00.445Z,88.40
2022-07-27T00:17:28.303Z,88.60
2022-07-27T00:19:55.986Z,88.60
2022-07-27T00:22:25.666Z,88.30
2022-07-27T00:24:53.258Z,88.90
2022-07-27T00:27:20.995Z,88.70
2022-07-27T00:29:48.473Z,88.70
2022-07-27T00:32:26.878Z,88.90
2022-07-27T00:35:39.842Z,88.40
2022-07-27T00:38:10.276Z,89.10
2022-07-27T00:40:37.922Z,88.90
2022-07-27T00:43:05.686Z,88.90
2022-07-27T00:45:43.160Z,88.90
2022-07-27T00:48:10.478Z,88.90
2022-07-27T00:50:41.313Z,88.80
2022-07-27T00:53:14.239Z,88.90
2022-07-27T00:55:42.432Z,88.90
2022-07-27T01:01:45.529Z,88.90
2022-07-27T01:04:31.833Z,88.70
2022-07-27T01:08:03.459Z,88.80
2022-07-27T01:10:33.416Z,88.80
2022-07-27T01:15:46.098Z,88.70
2022-07-27T01:18:28.339Z,88.60
2022-07-27T01:20:56.542Z,88.30
2022-07-27T01:23:26.189Z,88.60
2022-07-27T01:25:54.907Z,88.40
2022-07-27T01:28:24.086Z,88.40
2022-07-27T01:34:13.859Z,87.80
2022-07-27T01:37:01.094Z,88.40
2022-07-27T01:39:29.220Z,89.30
2022-07-27T01:41:58.194Z,89.20
2022-07-27T01:44:26.010Z,89.60
2022-07-27T01:46:57.838Z,89.40
2022-07-27T01:49:31.529Z,89.40
2022-07-27T01:51:59.599Z,89.60
2022-07-27T01:57:24.678Z,89.40
2022-07-27T02:00:03.226Z,89.50
2022-07-27T02:02:30.753Z,89.60
2022-07-27T02:05:01.363Z,89.90
2022-07-27T02:07:32.989Z,89.90
2022-07-27T02:10:01.907Z,89.90
2022-07-27T02:12:38.472Z,90.10
2022-07-27T02:15:15.481Z,90.20
2022-07-27T02:17:45.815Z,90.30
2022-07-27T02:20:21.046Z,90.20
2022-07-27T02:22:49.121Z,90.20
2022-07-27T02:25:30.171Z,90.20
2022-07-27T02:27:58.809Z,90.10
2022-07-27T02:30:27.694Z,90.10
2022-07-27T02:32:57.400Z,90.10
2022-07-27T02:35:27.369Z,90.20
2022-07-27T02:37:59.217Z,90.40
2022-07-27T02:40:26.776Z,90.30
2022-07-27T02:42:54.510Z,90.30
2022-07-27T02:45:33.946Z,90.40
2022-07-27T02:48:04.784Z,90.40
2022-07-27T02:50:39.468Z,90.40
2022-07-27T02:53:07.359Z,90.30
2022-07-27T02:55:35.593Z,90.10
2022-07-27T02:58:03.006Z,90.20
2022-07-27T03:00:30.653Z,90.20
2022-07-27T03:02:59.369Z,90.20
2022-07-27T03:05:29.412Z,90.20
2022-07-27T03:07:56.890Z,90.10
2022-07-27T03:10:26.371Z,90.30
2022-07-27T03:12:55.076Z,90.40
2022-07-27T03:15:27.055Z,90.40
2022-07-27T03:17:56.696Z,90.30
2022-07-27T03:20:25.472Z,90.40
2022-07-27T03:22:54.375Z,90.50
2022-07-27T03:25:24.900Z,90.40
2022-07-27T03:28:00.513Z,90.40
2022-07-27T03:30:32.051Z,90.50
2022-07-27T03:33:02.050Z,90.50
2022-07-27T03:35:29.677Z,90.60
2022-07-27T03:37:59.329Z,90.60
2022-07-27T03:40:29.836Z,90.70
2022-07-27T03:43:00.812Z,90.70
2022-07-27T03:45:28.466Z,90.70
2022-07-27T03:47:56.157Z,90.80
2022-07-27T03:50:24.053Z,90.80
2022-07-27T03:52:53.227Z,90.90
2022-07-27T03:55:21.351Z,90.80
2022-07-27T03:57:48.933Z,90.70
2022-07-27T04:00:19.383Z,90.70
2022-07-27T04:02:48.454Z,90.60
2022-07-27T04:05:19.708Z,90.60
2022-07-27T04:07:47.504Z,90.60
2022-07-27T04:10:19.375Z,90.50
2022-07-27T04:12:47.186Z,90.50
2022-07-27T04:15:19.194Z,90.30
2022-07-27T04:17:55.098Z,90.20
2022-07-27T04:20:25.367Z,90.10
2022-07-27T04:22:53.431Z,90.00
2022-07-27T04:25:21.345Z,90.00
2022-07-27T04:27:49.131Z,90.00
2022-07-27T04:30:16.975Z,90.00
2022-07-27T04:32:44.479Z,90.00
2022-07-27T04:35:14.872Z,89.60
2022-07-27T04:37:58.227Z,89.60
2022-07-27T04:40:33.248Z,89.00
2022-07-27T04:43:02.798Z,88.60
2022-07-27T04:45:32.631Z,88.20
2022-07-27T04:48:07.170Z,88.00
2022-07-27T04:50:55.006Z,87.40
2022-07-27T04:53:33.362Z,87.30
2022-07-27T04:56:01.487Z,87.30
2022-07-27T04:58:29.515Z,87.00
2022-07-27T05:01:03.042Z,87.20
2022-07-27T05:03:38.684Z,86.70
2022-07-27T05:06:11.320Z,86.20
2022-07-27T05:08:39.245Z,86.40
2022-07-27T05:11:06.799Z,86.30
2022-07-27T05:13:37.994Z,85.00
2022-07-27T05:16:07.340Z,85.30
2022-07-27T05:18:36.131Z,85.30
2022-07-27T05:21:03.871Z,84.90
2022-07-27T05:23:31.340Z,85.10
2022-07-27T05:25:58.831Z,85.00
2022-07-27T05:28:26.121Z,84.70
2022-07-27T05:30:54.839Z,84.50
2022-07-27T05:33:23.628Z,84.30
2022-07-27T05:35:51.017Z,83.20
2022-07-27T05:38:19.411Z,84.00
2022-07-27T05:40:47.197Z,83.30
2022-07-27T05:43:14.655Z,83.00
2022-07-27T05:45:42.112Z,82.60
2022-07-27T05:48:09.335Z,82.10
2022-07-27T05:50:37.292Z,82.00
2022-07-27T05:53:04.614Z,80.40
2022-07-27T05:55:32.066Z,81.00
2022-07-27T05:57:59.314Z,80.60
2022-07-27T06:00:26.543Z,79.80
2022-07-27T06:02:54.672Z,79.70
2022-07-27T06:05:22.284Z,79.50
2022-07-27T06:08:08.966Z,78.80
2022-07-27T06:10:38.269Z,78.50
2022-07-27T06:13:06.958Z,77.90
2022-07-27T06:15:37.340Z,77.70
2022-07-27T06:18:06.974Z,77.60
2022-07-27T06:20:34.273Z,75.20
2022-07-27T06:23:07.944Z,75.60
2022-07-27T06:25:35.982Z,74.90
2022-07-27T06:28:05.267Z,74.60
2022-07-27T06:30:34.352Z,74.90
2022-07-27T06:33:06.173Z,75.40
2022-07-27T06:35:34.305Z,75.10
2022-07-27T06:38:02.265Z,73.50
2022-07-27T06:40:30.065Z,74.30
2022-07-27T06:42:58.471Z,73.90
2022-07-27T06:45:26.722Z,72.40
2022-07-27T06:47:54.056Z,71.80
2022-07-27T06:50:21.879Z,72.20
2022-07-27T06:52:49.943Z,71.90
2022-07-27T06:55:20.100Z,72.20
2022-07-27T06:57:47.488Z,71.80
2022-07-27T07:00:15.674Z,70.60
2022-07-27T07:02:54.519Z,70.70
2022-07-27T07:05:23.204Z,70.50
2022-07-27T07:07:50.764Z,70.50
2022-07-27T07:10:18.349Z,70.20
2022-07-27T07:12:46.650Z,70.00
2022-07-27T07:15:13.992Z,67.90
2022-07-27T07:17:41.210Z,69.30
2022-07-27T07:20:09.477Z,69.50
2022-07-27T07:22:37.105Z,69.60
2022-07-27T07:25:04.630Z,69.10
2022-07-27T07:27:32.007Z,69.40
2022-07-27T07:29:59.265Z,69.00
2022-07-27T07:32:33.046Z,68.70
2022-07-27T07:35:03.848Z,68.70
2022-07-27T07:37:33.991Z,66.60
2022-07-27T07:40:24.891Z,67.40
2022-07-27T07:43:00.285Z,66.80
2022-07-27T07:45:29.632Z,66.80
2022-07-27T07:47:58.182Z,64.70
2022-07-27T07:50:28.093Z,66.60
2022-07-27T07:52:55.586Z,66.10
2022-07-27T07:55:26.637Z,64.70
2022-07-27T07:57:54.495Z,65.80
2022-07-27T08:00:22.509Z,64.90
2022-07-27T08:02:53.277Z,65.50
2022-07-27T08:05:21.956Z,65.10
2022-07-27T08:07:49.811Z,65.30
2022-07-27T08:10:19.012Z,65.10
2022-07-27T08:12:50.135Z,63.50
2022-07-27T08:15:18.155Z,64.50
2022-07-27T08:17:46.641Z,63.80
2022-07-27T08:20:16.105Z,63.70
2022-07-27T08:22:43.687Z,63.00
2022-07-27T08:25:12.597Z,63.40
2022-07-27T08:27:41.024Z,63.50
2022-07-27T08:30:11.779Z,63.20
2022-07-27T08:32:51.383Z,63.30
2022-07-27T08:35:20.567Z,63.20
2022-07-27T08:37:49.179Z,62.90
2022-07-27T08:40:42.824Z,62.00
2022-07-27T08:43:25.292Z,62.60
2022-07-27T08:45:58.662Z,62.00
2022-07-27T08:48:27.600Z,61.50
2022-07-27T08:50:57.988Z,61.50
2022-07-27T08:53:25.926Z,61.50
2022-07-27T08:56:02.231Z,61.50
2022-07-27T08:58:30.261Z,61.40
2022-07-27T09:00:59.199Z,61.20
2022-07-27T09:03:26.738Z,60.70
2022-07-27T09:05:58.958Z,60.20
2022-07-27T09:08:30.928Z,60.70
2022-07-27T09:11:00.213Z,59.70
2022-07-27T09:13:32.000Z,60.00
2022-07-27T09:16:20.902Z,59.40
2022-07-27T09:18:58.491Z,59.20
2022-07-27T09:21:26.034Z,59.80
2022-07-27T09:24:17.990Z,59.30
2022-07-27T09:27:02.985Z,58.60
2022-07-27T09:29:34.838Z,59.60
2022-07-27T09:32:14.656Z,58.30
2022-07-27T09:34:42.138Z,59.20
2022-07-27T09:37:11.358Z,59.30
2022-07-27T09:39:41.165Z,58.90
2022-07-27T09:42:52.454Z,58.30
2022-07-27T09:45:04.960Z,58.80
2022-07-27T09:47:32.873Z,58.60
2022-07-27T09:50:24.243Z,57.60
2022-07-27T09:52:51.637Z,58.40
2022-07-27T09:55:22.278Z,58.10
2022-07-27T09:58:15.592Z,57.80
2022-07-27T10:00:59.941Z,57.60
2022-07-27T10:03:29.708Z,57.20
2022-07-27T10:06:00.110Z,56.70
2022-07-27T10:08:28.378Z,56.90
2022-07-27T10:10:57.513Z,55.60
2022-07-27T10:13:27.529Z,56.10
2022-07-27T10:15:57.572Z,55.30
2022-07-27T10:18:41.785Z,55.60
2022-07-27T10:21:20.995Z,55.40
2022-07-27T10:23:56.134Z,54.30
2022-07-27T10:26:43.355Z,55.00
2022-07-27T10:29:13.849Z,54.40
2022-07-27T10:31:43.794Z,53.40
2022-07-27T10:34:15.442Z,54.30
2022-07-27T10:36:48.117Z,53.80
2022-07-27T10:39:35.004Z,53.70
2022-07-27T10:42:28.477Z,54.00
2022-07-27T10:45:18.329Z,53.80
2022-07-27T10:47:50.760Z,52.90
2022-07-27T10:50:18.307Z,52.70
2022-07-27T10:52:45.530Z,52.80
2022-07-27T10:55:50.583Z,52.70
2022-07-27T10:58:18.534Z,52.40
2022-07-27T11:01:09.142Z,52.60
2022-07-27T11:03:49.797Z,52.70
2022-07-27T11:06:33.164Z,52.30
2022-07-27T11:10:02.240Z,52.30
2022-07-27T11:11:54.607Z,52.50
2022-07-27T11:14:30.671Z,52.40
2022-07-27T11:19:54.829Z,52.30
2022-07-27T11:25:27.842Z,52.00
2022-07-27T11:27:55.155Z,51.90
2022-07-27T11:30:26.644Z,51.40
2022-07-27T11:32:55.462Z,51.40
2022-07-27T11:35:23.202Z,50.90
2022-07-27T11:38:08.746Z,52.00
2022-07-27T11:40:57.055Z,52.40
2022-07-27T11:43:36.881Z,51.40
2022-07-27T11:46:26.163Z,51.80
2022-07-27T11:49:17.725Z,51.50
2022-07-27T11:51:47.577Z,51.10
2022-07-27T11:54:26.225Z,49.60
2022-07-27T11:56:59.200Z,50.10
2022-07-27T11:59:31.674Z,49.80
2022-07-27T12:02:04.964Z,49.50
2022-07-27T12:04:37.969Z,48.70
2022-07-27T12:07:20.212Z,48.30
2022-07-27T12:09:54.291Z,46.80
2022-07-27T12:12:40.285Z,47.50
2022-07-27T12:15:42.817Z,48.20
2022-07-27T12:18:00.954Z,48.20
2022-07-27T12:20:36.824Z,47.10
2022-07-27T12:23:06.854Z,47.60
2022-07-27T12:25:35.558Z,47.70
2022-07-27T12:28:11.093Z,47.60
2022-07-27T12:30:44.267Z,47.10
2022-07-27T12:33:32.110Z,47.00
2022-07-27T12:36:02.602Z,45.30
2022-07-27T12:38:48.963Z,46.40
2022-07-27T12:41:38.308Z,46.30
2022-07-27T12:44:13.136Z,46.20
2022-07-27T12:47:01.808Z,45.90
2022-07-27T12:49:36.831Z,46.40
2022-07-27T12:52:09.665Z,46.90
2022-07-27T12:54:38.751Z,47.00
2022-07-27T12:57:06.435Z,47.60
2022-07-27T12:59:34.436Z,48.20
2022-07-27T13:02:04.354Z,48.50
2022-07-27T13:04:31.938Z,48.80
2022-07-27T13:07:00.991Z,49.60
2022-07-27T13:10:03.333Z,49.90
2022-07-27T13:12:20.975Z,50.20
2022-07-27T13:14:49.125Z,51.70
2022-07-27T13:17:16.564Z,51.60
2022-07-27T13:19:44.342Z,51.80
2022-07-27T13:22:14.278Z,52.30
2022-07-27T13:24:42.180Z,52.80
2022-07-27T13:27:09.401Z,52.80
2022-07-27T13:29:36.613Z,53.50
2022-07-27T13:32:05.954Z,53.40
2022-07-27T13:34:33.266Z,53.50
2022-07-27T13:37:00.512Z,53.70
2022-07-27T13:39:28.052Z,53.70
2022-07-27T13:41:55.958Z,54.40
2022-07-27T13:44:58.407Z,54.00
2022-07-27T13:47:15.552Z,54.10
2022-07-27T13:49:44.911Z,54.60
2022-07-27T13:52:17.561Z,54.20
2022-07-27T13:54:49.067Z,54.30
2022-07-27T13:57:16.782Z,54.40
2022-07-27T13:59:44.111Z,54.50
2022-07-27T14:02:12.670Z,54.40
2022-07-27T14:04:45.805Z,54.40
2022-07-27T14:07:13.233Z,54.70
2022-07-27T14:09:58.881Z,54.90
2022-07-27T14:12:26.149Z,54.90
2022-07-27T14:15:03.075Z,55.30
2022-07-27T14:22:58.477Z,55.90
2022-07-27T14:25:25.822Z,56.20
2022-07-27T14:27:55.515Z,56.40
2022-07-27T14:30:23.844Z,56.70
2022-07-27T14:32:51.374Z,57.20
2022-07-27T14:35:19.647Z,59.00
2022-07-27T14:37:46.981Z,59.90
2022-07-27T14:40:15.625Z,60.00
2022-07-27T14:42:42.868Z,61.50
2022-07-27T14:45:10.657Z,60.70
2022-07-27T14:47:38.212Z,60.90
2022-07-27T14:50:07.031Z,61.50
2022-07-27T14:52:35.981Z,62.20
2022-07-27T14:55:03.349Z,62.10
2022-07-27T14:57:32.744Z,62.10
2022-07-27T15:00:01.567Z,62.30
2022-07-27T15:02:28.863Z,63.90
2022-07-27T15:04:56.247Z,63.00
2022-07-27T15:07:26.775Z,64.00
2022-07-27T15:09:54.327Z,64.50
2022-07-27T15:12:22.811Z,66.40
2022-07-27T15:14:50.233Z,67.00
2022-07-27T15:17:20.654Z,69.00
2022-07-27T15:19:50.429Z,68.80
2022-07-27T15:22:20.162Z,68.80
2022-07-27T15:24:52.989Z,69.20
2022-07-27T15:27:20.874Z,69.20
2022-07-27T15:29:49.040Z,70.10
2022-07-27T15:32:19.564Z,68.80
2022-07-27T15:34:47.463Z,68.00
2022-07-27T15:37:14.788Z,67.60
2022-07-27T15:39:43.187Z,66.60
2022-07-27T15:42:14.619Z,64.40
2022-07-27T15:44:41.909Z,64.90
2022-07-27T15:47:15.259Z,65.00
2022-07-27T15:49:43.526Z,64.60
2022-07-27T15:52:13.906Z,64.20
2022-07-27T16:18:06.894Z,61.60
2022-07-27T16:20:55.380Z,61.60
2022-07-27T16:23:23.168Z,61.20
2022-07-27T16:26:04.522Z,61.20
2022-07-27T16:28:42.570Z,61.10
2022-07-27T16:31:14.418Z,61.10
2022-07-27T16:33:44.625Z,60.80
2022-07-27T16:36:15.801Z,60.00
2022-07-27T16:38:49.901Z,60.40
2022-07-27T16:41:24.933Z,60.70
2022-07-27T16:43:55.012Z,60.50
2022-07-27T16:46:22.484Z,60.60
2022-07-27T16:48:49.852Z,60.70
2022-07-27T16:51:25.303Z,60.90
2022-07-27T16:53:55.577Z,60.80
2022-07-27T16:56:22.953Z,60.60
2022-07-27T16:58:51.675Z,60.80
2022-07-27T17:01:26.755Z,60.70
2022-07-27T17:03:56.593Z,60.70
2022-07-27T17:06:35.415Z,60.90
2022-07-27T17:09:11.997Z,61.20
2022-07-27T17:11:42.134Z,61.00
2022-07-27T17:17:06.137Z,60.40
2022-07-27T17:19:34.566Z,60.30
2022-07-27T17:22:04.577Z,60.30
2022-07-27T17:24:36.266Z,60.30
2022-07-27T17:27:05.955Z,60.60
2022-07-27T17:29:36.117Z,60.10
2022-07-27T17:32:10.126Z,60.50
2022-07-27T17:34:39.043Z,60.70
2022-07-27T17:37:11.658Z,61.00
2022-07-27T17:39:42.486Z,61.50
2022-07-27T17:42:09.902Z,61.70
2022-07-27T17:44:39.699Z,61.80
2022-07-27T17:47:07.180Z,61.90
2022-07-27T17:49:34.645Z,62.30
2022-07-27T17:52:05.452Z,62.50
2022-07-27T17:54:33.728Z,63.00
2022-07-27T17:57:01.155Z,64.20
2022-07-27T17:59:38.417Z,64.20
2022-07-27T18:02:09.572Z,65.00
2022-07-27T18:04:39.458Z,64.90
2022-07-27T18:07:12.072Z,64.90
2022-07-27T18:09:40.807Z,65.00
2022-07-27T18:12:09.049Z,65.30
2022-07-27T18:14:39.211Z,65.50
2022-07-27T18:17:06.953Z,65.80
2022-07-27T18:19:37.320Z,65.20
2022-07-27T18:22:04.851Z,65.30
2022-07-27T18:24:35.786Z,65.50
2022-07-27T18:27:03.251Z,65.60
2022-07-27T18:29:31.495Z,65.50
2022-07-27T18:31:58.756Z,65.60
2022-07-27T18:34:29.327Z,65.50
2022-07-27T18:36:56.875Z,65.50
2022-07-27T18:39:33.952Z,65.50
2022-07-27T18:42:04.085Z,66.00
2022-07-27T18:44:38.258Z,66.30
2022-07-27T18:47:06.995Z,65.80
2022-07-27T18:49:36.783Z,66.00
2022-07-27T18:52:06.982Z,66.10
2022-07-27T18:54:34.882Z,66.70
2022-07-27T18:57:02.501Z,66.40
2022-07-27T18:59:40.783Z,66.30
2022-07-27T19:02:12.298Z,66.40
2022-07-27T19:04:42.994Z,66.40
2022-07-27T19:07:11.139Z,67.60
2022-07-27T19:09:42.761Z,67.70
2022-07-27T19:12:10.441Z,67.10
2022-07-27T19:14:50.105Z,67.60
2022-07-27T19:17:19.782Z,67.40
2022-07-27T19:19:47.388Z,68.60
2022-07-27T19:22:15.923Z,68.40
2022-07-27T19:24:43.342Z,68.90
2022-07-27T19:27:11.251Z,69.80
2022-07-27T19:29:38.553Z,68.70
2022-07-27T19:32:08.338Z,68.70
2022-07-27T19:34:36.472Z,69.00
2022-07-27T19:37:03.931Z,69.10
2022-07-27T19:39:57.182Z,68.70
2022-07-27T19:42:22.500Z,68.50
2022-07-27T19:44:49.839Z,68.40
2022-07-27T19:47:18.588Z,68.30
2022-07-27T19:49:48.334Z,68.20
2022-07-27T19:52:17.439Z,68.50
2022-07-27T19:54:44.682Z,68.70
2022-07-27T19:57:11.992Z,68.30
2022-07-27T19:59:55.554Z,68.20
2022-07-27T20:02:25.264Z,68.10
2022-07-27T20:04:52.697Z,68.20
2022-07-27T20:07:19.959Z,68.50
2022-07-27T20:09:48.923Z,69.20
2022-07-27T20:12:16.292Z,68.60
2022-07-27T20:14:43.883Z,68.80
2022-07-27T20:17:11.313Z,69.00
2022-07-27T20:19:39.426Z,68.90
2022-07-27T20:22:07.061Z,69.50
2022-07-27T20:24:34.479Z,69.80
2022-07-27T20:27:01.805Z,69.90
2022-07-27T20:29:31.683Z,70.90
2022-07-27T20:32:00.650Z,70.20
2022-07-27T20:34:27.911Z,70.60
2022-07-27T20:36:58.691Z,70.70
2022-07-27T20:39:26.400Z,71.60
2022-07-27T20:41:54.410Z,72.10
2022-07-27T20:44:21.748Z,72.40
2022-07-27T20:46:49.149Z,73.30
2022-07-27T20:49:17.361Z,73.30
2022-07-27T20:51:45.268Z,73.10
2022-07-27T20:54:13.687Z,72.40
2022-07-27T20:56:40.914Z,72.50
2022-07-27T20:59:09.034Z,72.30
2022-07-27T21:01:44.880Z,72.40
2022-07-27T21:04:12.826Z,72.20
2022-07-27T21:06:41.778Z,72.30
2022-07-27T21:09:09.815Z,72.10
2022-07-27T21:11:37.243Z,72.50
2022-07-27T21:14:07.808Z,73.10
2022-07-27T21:16:36.205Z,73.20
2022-07-27T21:19:05.212Z,75.40
2022-07-27T21:21:34.301Z,75.60
2022-07-27T21:24:21.294Z,74.40
2022-07-27T21:29:48.007Z,74.10
2022-07-27T21:32:17.549Z,74.50
2022-07-27T21:34:44.926Z,74.20
2022-07-27T21:37:12.431Z,74.20
2022-07-27T21:39:44.399Z,74.50
2022-07-27T21:42:12.106Z,74.50
2022-07-27T21:44:39.672Z,74.00
2022-07-27T21:47:13.116Z,74.10
2022-07-27T21:49:41.343Z,74.30
2022-07-27T21:52:11.670Z,74.00
2022-07-27T21:54:39.412Z,74.30
2022-07-27T21:57:14.097Z,75.50
2022-07-27T21:59:47.087Z,76.90
2022-07-27T22:02:15.789Z,75.00
2022-07-27T22:04:43.170Z,74.90
2022-07-27T22:21:07.824Z,76.30
2022-07-27T22:27:03.138Z,75.80
2022-07-27T22:29:35.503Z,77.10
2022-07-27T22:32:05.969Z,77.50
2022-07-27T22:35:07.514Z,77.90
2022-07-27T22:37:37.925Z,76.80
2022-07-27T22:40:08.008Z,77.30
2022-07-27T22:42:35.699Z,77.00
2022-07-27T22:45:03.476Z,78.50
2022-07-27T22:47:31.029Z,78.10
2022-07-27T22:50:01.452Z,79.00
2022-07-27T22:52:31.455Z,79.60
2022-07-27T22:55:00.817Z,81.50
2022-07-27T22:57:28.816Z,80.50
2022-07-27T22:59:56.008Z,80.80
2022-07-27T23:02:24.880Z,82.60
2022-07-27T23:04:53.350Z,82.50
2022-07-27T23:07:20.581Z,82.70
2022-07-27T23:09:51.003Z,84.00
2022-07-27T23:12:18.789Z,84.70
2022-07-27T23:14:49.281Z,86.20
2022-07-27T23:17:18.693Z,87.50
2022-07-27T23:19:46.186Z,88.90
2022-07-27T23:22:17.349Z,87.10
2022-07-27T23:24:52.230Z,88.40
2022-07-27T23:27:26.400Z,87.80
2022-07-27T23:30:08.728Z,89.40
2022-07-27T23:32:36.841Z,90.00
2022-07-27T23:35:04.914Z,90.10
2022-07-27T23:37:32.240Z,90.30
2022-07-27T23:39:59.732Z,90.10
2022-07-27T23:42:27.240Z,90.00
2022-07-27T23:44:54.536Z,91.00
2022-07-27T23:47:22.247Z,91.20
2022-07-27T23:49:54.525Z,90.60
2022-07-27T23:52:22.847Z,90.80
2022-07-27T23:54:50.145Z,91.20
2022-07-27T23:57:22.008Z,91.40
2022-07-27T23:59:49.271Z,91.30
